logo
Search for airport 
image banner adimage banner adimage banner ad
image banner ad

TNCA - International Reina Beatrix Airport

Located in Oranjestad, Aruba

ICAO - TNCA, IATA - AUA

Data provided by Airmate  

General information

Coordinates: N12°30'5" W70°0'55"
Elevation is 62 feet MSL.
Magnetic variation is -11° East
View others Airports in (unassigned)

Operational data

Special qualification required
Current time UTC:
Current local time:
Weather
METAR: TNCA 270300Z 09017KT 9999 FEW018 25/22 Q1015 NOSIG
TAF: TAF TNCA 062315Z 0700/0724 09019KT 9999 FEW020 PROB30 TEMPO 0704/0716 7000 SHRA BKN014
View NOTAMs / SUP AIP / TFR affecting this airport [VIEW]
Communications frequencies: [VIEW]

Runways:

RWY identifierQFULength (ft)Width (ft)SurfaceLDA (ft)
11104°9277148ASP
29284°9277148ASP

Airport contact information

Address: Oranjestad Aruba

Satellite view of TNCA